createdAt,value
2023-05-09T00:00:25.818Z,69.03
2023-05-09T00:01:25.808Z,69.03
2023-05-09T00:02:25.872Z,68.41
2023-05-09T00:03:25.790Z,68.52
2023-05-09T00:04:25.969Z,69.03
2023-05-09T00:05:25.773Z,69.03
2023-05-09T00:06:25.771Z,68.32
2023-05-09T00:07:25.766Z,68.52
2023-05-09T00:08:25.721Z,69.24
2023-05-09T00:09:25.704Z,69.34
2023-05-09T00:10:25.682Z,69.03
2023-05-09T00:11:25.685Z,68.62
2023-05-09T00:12:25.682Z,69.03
2023-05-09T00:13:25.730Z,69.34
2023-05-09T00:14:25.640Z,69.34
2023-05-09T00:15:25.624Z,69.34
2023-05-09T00:16:25.655Z,69.13
2023-05-09T00:17:25.615Z,68.93
2023-05-09T00:18:25.589Z,69.34
2023-05-09T00:19:25.580Z,69.44
2023-05-09T00:20:25.594Z,69.57
2023-05-09T00:21:25.552Z,69.89
2023-05-09T00:22:25.553Z,69.37
2023-05-09T00:23:25.539Z,69.37
2023-05-09T00:24:25.502Z,69.17
2023-05-09T00:25:25.480Z,69.37
2023-05-09T00:26:25.478Z,68.96
2023-05-09T00:27:25.491Z,69.37
2023-05-09T00:28:25.467Z,68.96
2023-05-09T00:29:25.473Z,68.96
2023-05-09T00:30:25.459Z,69.17
2023-05-09T00:31:25.438Z,69.98
2023-05-09T00:32:25.426Z,70.70
2023-05-09T00:33:25.428Z,70.70
2023-05-09T00:34:25.397Z,69.89
2023-05-09T00:35:25.390Z,69.89
2023-05-09T00:36:25.345Z,70.09
2023-05-09T00:37:25.326Z,69.27
2023-05-09T00:38:25.393Z,69.06
2023-05-09T00:39:25.301Z,70.09
2023-05-09T00:40:25.296Z,70.29
2023-05-09T00:41:25.271Z,69.89
2023-05-09T00:42:25.287Z,69.89
2023-05-09T00:43:25.277Z,71.04
2023-05-09T00:44:25.276Z,70.32
2023-05-09T00:45:25.257Z,70.73
2023-05-09T00:46:25.231Z,71.25
2023-05-09T00:47:25.213Z,70.73
2023-05-09T00:48:25.204Z,70.53
2023-05-09T00:49:25.196Z,70.43
2023-05-09T00:50:25.180Z,69.92
2023-05-09T00:51:25.172Z,70.94
2023-05-09T00:52:25.139Z,71.15
2023-05-09T00:53:25.140Z,71.15
2023-05-09T00:54:25.109Z,72.07
2023-05-09T00:55:25.118Z,70.94
2023-05-09T00:56:25.096Z,70.87
2023-05-09T00:57:25.070Z,70.46
2023-05-09T00:58:25.056Z,70.97
2023-05-09T00:59:25.044Z,71.08
2023-05-09T01:00:25.058Z,70.97
2023-05-09T01:01:25.089Z,71.08
2023-05-09T01:02:25.069Z,72.10
2023-05-09T01:03:25.077Z,71.69
2023-05-09T01:04:25.048Z,71.90
2023-05-09T01:05:24.991Z,70.77
2023-05-09T01:06:24.988Z,70.97
2023-05-09T01:07:24.961Z,71.39
2023-05-09T01:08:24.961Z,71.48
2023-05-09T01:09:24.934Z,71.39
2023-05-09T01:10:24.911Z,71.69
2023-05-09T01:11:24.906Z,71.39
2023-05-09T01:12:24.901Z,71.28
2023-05-09T01:13:25.015Z,70.97
2023-05-09T01:14:24.878Z,72.10
2023-05-09T01:15:24.876Z,71.90
2023-05-09T01:16:24.864Z,71.39
2023-05-09T01:17:24.834Z,70.56
2023-05-09T01:18:24.844Z,71.52
2023-05-09T01:19:24.829Z,71.52
2023-05-09T01:20:24.792Z,71.52
2023-05-09T01:21:24.817Z,71.42
2023-05-09T01:22:24.767Z,70.70
2023-05-09T01:23:24.749Z,71.62
2023-05-09T01:24:24.741Z,71.01
2023-05-09T01:25:24.763Z,70.90
2023-05-09T01:26:24.739Z,71.21
2023-05-09T01:27:24.706Z,71.42
2023-05-09T01:28:24.712Z,71.72
2023-05-09T01:29:24.662Z,71.83
2023-05-09T01:30:24.700Z,71.31
2023-05-09T01:31:24.753Z,72.14
2023-05-09T01:32:24.706Z,71.42
2023-05-09T01:33:24.628Z,71.42
2023-05-09T01:34:24.620Z,71.62
2023-05-09T01:35:24.635Z,71.62
2023-05-09T01:36:24.582Z,71.11
2023-05-09T01:37:24.578Z,71.93
2023-05-09T01:38:24.602Z,71.72
2023-05-09T01:39:24.552Z,71.11
2023-05-09T01:40:24.539Z,71.21
2023-05-09T01:41:24.526Z,71.42
2023-05-09T01:42:24.530Z,71.42
2023-05-09T01:43:24.506Z,71.01
2023-05-09T01:44:24.492Z,71.14
2023-05-09T01:45:24.493Z,72.06
2023-05-09T01:46:24.555Z,70.84
2023-05-09T01:47:24.455Z,71.25
2023-05-09T01:48:24.420Z,72.38
2023-05-09T01:49:24.436Z,72.06
2023-05-09T01:50:24.398Z,72.27
2023-05-09T01:51:24.400Z,71.66
2023-05-09T01:52:24.397Z,71.55
2023-05-09T01:53:24.395Z,71.55
2023-05-09T01:54:24.349Z,71.35
2023-05-09T01:55:24.337Z,72.17
2023-05-09T01:56:24.395Z,72.38
2023-05-09T01:57:24.316Z,72.58
2023-05-09T01:58:24.328Z,72.58
2023-05-09T01:59:24.280Z,71.97
2023-05-09T02:00:24.319Z,72.68
2023-05-09T02:01:24.362Z,72.38
2023-05-09T02:02:24.406Z,72.58
2023-05-09T02:03:24.296Z,71.35
2023-05-09T02:04:24.242Z,72.27
2023-05-09T02:05:24.222Z,72.20
2023-05-09T02:06:24.204Z,72.20
2023-05-09T02:07:24.195Z,72.31
2023-05-09T02:08:24.189Z,72.00
2023-05-09T02:09:24.149Z,72.10
2023-05-09T02:10:24.164Z,72.61
2023-05-09T02:11:24.150Z,72.61
2023-05-09T02:12:24.148Z,72.51
2023-05-09T02:13:24.166Z,71.38
2023-05-09T02:14:24.139Z,71.69
2023-05-09T02:15:24.108Z,71.69
2023-05-09T02:16:24.135Z,72.51
2023-05-09T02:17:24.074Z,71.79
2023-05-09T02:18:24.118Z,72.00
2023-05-09T02:19:24.050Z,72.10
2023-05-09T02:20:24.048Z,72.00
2023-05-09T02:21:24.007Z,71.89
2023-05-09T02:22:24.031Z,71.79
2023-05-09T02:23:23.998Z,72.00
2023-05-09T02:24:23.969Z,71.89
2023-05-09T02:25:23.977Z,72.44
2023-05-09T02:26:23.946Z,73.47
2023-05-09T02:27:23.939Z,72.44
2023-05-09T02:28:23.923Z,73.06
2023-05-09T02:29:23.927Z,73.64
2023-05-09T02:30:23.904Z,72.65
2023-05-09T02:31:23.955Z,71.72
2023-05-09T02:32:23.848Z,71.93
2023-05-09T02:33:23.841Z,72.44
2023-05-09T02:34:23.841Z,72.96
2023-05-09T02:35:23.859Z,73.27
2023-05-09T02:36:23.856Z,73.57
2023-05-09T02:37:23.796Z,72.65
2023-05-09T02:38:23.804Z,72.38
2023-05-09T02:39:23.774Z,73.09
2023-05-09T02:40:23.775Z,72.99
2023-05-09T02:41:23.789Z,73.40
2023-05-09T02:42:23.741Z,73.61
2023-05-09T02:43:23.768Z,74.02
2023-05-09T02:44:23.721Z,73.47
2023-05-09T02:45:23.721Z,73.06
2023-05-09T02:46:23.756Z,72.96
2023-05-09T02:47:23.679Z,72.96
2023-05-09T02:48:23.681Z,72.44
2023-05-09T02:49:32.004Z,73.57
2023-05-09T02:50:24.653Z,72.99
2023-05-09T02:51:23.625Z,73.19
2023-05-09T02:52:23.638Z,72.58
2023-05-09T02:53:23.600Z,73.30
2023-05-09T02:54:23.589Z,73.09
2023-05-09T02:55:23.566Z,72.89
2023-05-09T02:56:23.579Z,73.19
2023-05-09T02:57:23.577Z,74.02
2023-05-09T02:58:23.541Z,74.02
2023-05-09T02:59:23.530Z,73.09
2023-05-09T03:00:23.518Z,73.30
2023-05-09T03:01:23.541Z,73.64
2023-05-09T03:02:24.476Z,74.57
2023-05-09T03:03:30.593Z,74.26
2023-05-09T03:04:23.434Z,74.84
2023-05-09T03:05:23.420Z,73.91
2023-05-09T03:06:23.435Z,74.15
2023-05-09T03:07:23.414Z,74.26
2023-05-09T03:08:23.385Z,74.46
2023-05-09T03:09:23.383Z,74.98
2023-05-09T03:10:23.364Z,74.87
2023-05-09T03:11:23.411Z,74.05
2023-05-09T03:12:23.324Z,74.67
2023-05-09T03:13:23.397Z,74.05
2023-05-09T03:14:23.309Z,74.26
2023-05-09T03:15:23.297Z,74.77
2023-05-09T03:16:30.501Z,74.80
2023-05-09T03:17:23.297Z,75.49
2023-05-09T03:18:23.266Z,75.39
2023-05-09T03:19:23.248Z,75.18
2023-05-09T03:20:23.240Z,75.08
2023-05-09T03:21:23.234Z,75.08
2023-05-09T03:22:23.217Z,74.57
2023-05-09T03:23:23.263Z,74.77
2023-05-09T03:24:23.223Z,75.70
2023-05-09T03:25:23.190Z,75.18
2023-05-09T03:26:23.189Z,75.18
2023-05-09T03:27:23.177Z,75.59
2023-05-09T03:28:23.149Z,75.29
2023-05-09T03:29:23.163Z,75.39
2023-05-09T03:30:23.127Z,75.12
2023-05-09T03:31:23.156Z,75.22
2023-05-09T03:32:23.112Z,75.12
2023-05-09T03:33:23.085Z,75.63
2023-05-09T03:34:23.086Z,75.94
2023-05-09T03:35:23.089Z,75.84
2023-05-09T03:36:23.040Z,75.90
2023-05-09T03:37:24.380Z,75.08
2023-05-09T03:38:23.014Z,75.18
2023-05-09T03:39:23.007Z,75.59
2023-05-09T03:40:22.998Z,75.70
2023-05-09T03:41:22.991Z,74.57
2023-05-09T03:42:22.969Z,74.98
2023-05-09T03:43:22.956Z,74.46
2023-05-09T03:44:22.963Z,74.57
2023-05-09T03:45:22.948Z,74.29
2023-05-09T03:46:23.010Z,75.01
2023-05-09T03:47:22.896Z,74.50
2023-05-09T03:48:22.894Z,74.50
2023-05-09T03:49:22.886Z,75.32
2023-05-09T03:50:22.850Z,75.52
2023-05-09T03:51:22.856Z,75.73
2023-05-09T03:52:22.848Z,76.14
2023-05-09T03:53:22.819Z,76.35
2023-05-09T03:54:22.845Z,76.25
2023-05-09T03:55:22.814Z,75.63
2023-05-09T03:56:22.814Z,75.84
2023-05-09T03:57:22.782Z,75.73
2023-05-09T03:58:22.825Z,74.60
2023-05-09T03:59:22.770Z,75.01
2023-05-09T04:00:22.753Z,75.22
2023-05-09T04:01:22.753Z,76.04
2023-05-09T04:02:22.853Z,75.94
2023-05-09T04:03:22.798Z,75.70
2023-05-09T04:04:22.701Z,74.77
2023-05-09T04:05:22.674Z,75.42
2023-05-09T04:06:22.668Z,76.01
2023-05-09T04:07:22.701Z,74.77
2023-05-09T04:08:22.651Z,74.29
2023-05-09T04:09:22.675Z,74.50
2023-05-09T04:10:22.628Z,74.40
2023-05-09T04:11:22.634Z,74.70
2023-05-09T04:12:22.600Z,74.87
2023-05-09T04:13:22.601Z,74.80
2023-05-09T04:14:22.572Z,74.77
2023-05-09T04:15:22.581Z,74.05
2023-05-09T04:16:22.582Z,74.46
2023-05-09T04:17:22.555Z,75.39
2023-05-09T04:18:22.495Z,74.87
2023-05-09T04:19:22.514Z,73.95
2023-05-09T04:20:22.479Z,74.26
2023-05-09T04:21:22.508Z,74.77
2023-05-09T04:22:22.464Z,74.57
2023-05-09T04:23:22.442Z,74.36
2023-05-09T04:24:22.428Z,74.05
2023-05-09T04:25:22.507Z,74.15
2023-05-09T04:26:22.453Z,74.02
2023-05-09T04:27:22.399Z,73.30
2023-05-09T04:28:22.400Z,74.22
2023-05-09T04:29:22.372Z,74.53
2023-05-09T04:30:22.379Z,73.71
2023-05-09T04:31:22.428Z,74.02
2023-05-09T04:32:22.329Z,73.50
2023-05-09T04:33:22.404Z,73.71
2023-05-09T04:34:22.307Z,73.30
2023-05-09T04:35:22.696Z,73.40
2023-05-09T04:36:22.265Z,73.40
2023-05-09T04:37:22.269Z,73.40
2023-05-09T04:38:22.260Z,73.40
2023-05-09T04:39:22.246Z,72.89
2023-05-09T04:40:22.251Z,72.89
2023-05-09T04:41:22.238Z,73.30
2023-05-09T04:42:22.187Z,72.99
2023-05-09T04:43:22.205Z,73.19
2023-05-09T04:44:22.194Z,72.96
2023-05-09T04:45:22.162Z,73.06
2023-05-09T04:46:24.255Z,72.96
2023-05-09T04:47:22.246Z,72.85
2023-05-09T04:48:22.146Z,72.44
2023-05-09T04:49:22.114Z,73.27
2023-05-09T04:50:22.104Z,73.47
2023-05-09T04:51:22.097Z,73.78
2023-05-09T04:52:22.062Z,72.41
2023-05-09T04:53:22.073Z,72.41
2023-05-09T04:54:22.068Z,72.51
2023-05-09T04:55:22.041Z,71.89
2023-05-09T04:56:22.025Z,72.92
2023-05-09T04:57:22.024Z,72.61
2023-05-09T04:58:21.996Z,72.61
2023-05-09T04:59:21.977Z,72.92
2023-05-09T05:00:21.981Z,71.69
2023-05-09T05:01:22.024Z,71.97
2023-05-09T05:02:21.950Z,72.06
2023-05-09T05:03:21.949Z,72.17
2023-05-09T05:04:21.934Z,73.19
2023-05-09T05:05:25.010Z,72.38
2023-05-09T05:06:21.901Z,72.48
2023-05-09T05:07:21.922Z,72.14
2023-05-09T05:08:21.864Z,71.21
2023-05-09T05:09:21.856Z,70.50
2023-05-09T05:10:21.860Z,70.80
2023-05-09T05:11:21.830Z,71.62
2023-05-09T05:12:21.825Z,71.52
2023-05-09T05:13:21.939Z,71.62
2023-05-09T05:14:21.908Z,71.42
2023-05-09T05:15:21.801Z,70.67
2023-05-09T05:16:21.837Z,69.84
2023-05-09T05:17:21.768Z,69.74
2023-05-09T05:18:21.753Z,69.95
2023-05-09T05:19:21.737Z,70.97
2023-05-09T05:20:21.763Z,71.04
2023-05-09T05:21:21.692Z,70.53
2023-05-09T05:22:21.687Z,70.22
2023-05-09T05:23:21.680Z,69.61
2023-05-09T05:24:21.644Z,70.32
2023-05-09T05:25:21.653Z,69.30
2023-05-09T05:26:21.636Z,69.37
2023-05-09T05:27:21.658Z,70.19
2023-05-09T05:28:21.609Z,69.47
2023-05-09T05:29:21.596Z,69.37
2023-05-09T05:30:21.627Z,69.27
2023-05-09T05:31:21.599Z,68.86
2023-05-09T05:32:21.559Z,69.85
2023-05-09T05:33:21.541Z,68.83
2023-05-09T05:34:21.565Z,68.93
2023-05-09T05:35:21.511Z,68.83
2023-05-09T05:36:21.518Z,68.73
2023-05-09T05:37:21.514Z,68.90
2023-05-09T05:38:21.466Z,67.67
2023-05-09T05:39:21.484Z,67.67
2023-05-09T05:40:21.444Z,68.18
2023-05-09T05:41:21.461Z,68.59
2023-05-09T05:42:21.423Z,68.38
2023-05-09T05:43:21.430Z,67.64
2023-05-09T05:44:21.410Z,67.13
2023-05-09T05:45:21.398Z,67.84
2023-05-09T05:46:21.500Z,67.02
2023-05-09T05:47:21.351Z,66.07
2023-05-09T05:48:21.341Z,65.56
2023-05-09T05:49:21.362Z,65.66
2023-05-09T05:50:21.309Z,64.84
2023-05-09T05:51:21.331Z,64.54
2023-05-09T05:52:21.301Z,64.84
2023-05-09T05:53:21.292Z,65.12
2023-05-09T05:54:21.261Z,64.61
2023-05-09T05:55:21.286Z,64.92
2023-05-09T05:56:21.255Z,64.40
2023-05-09T05:57:21.240Z,64.07
2023-05-09T05:58:21.229Z,64.17
2023-05-09T05:59:21.222Z,63.66
2023-05-09T06:00:21.180Z,62.54
2023-05-09T06:01:21.171Z,62.81
2023-05-09T06:02:21.235Z,63.73
2023-05-09T06:03:21.239Z,63.22
2023-05-09T06:04:21.194Z,64.14
2023-05-09T06:05:21.121Z,62.71
2023-05-09T06:06:21.149Z,62.40
2023-05-09T06:07:21.107Z,61.90
2023-05-09T06:08:21.082Z,62.37
2023-05-09T06:09:21.082Z,61.46
2023-05-09T06:10:21.084Z,61.66
2023-05-09T06:11:21.045Z,61.35
2023-05-09T06:12:21.030Z,61.15
2023-05-09T06:13:21.114Z,61.05
2023-05-09T06:14:21.026Z,61.63
2023-05-09T06:15:20.988Z,61.32
2023-05-09T06:16:20.994Z,61.73
2023-05-09T06:17:20.989Z,61.12
2023-05-09T06:18:20.954Z,60.82
2023-05-09T06:19:21.006Z,60.48
2023-05-09T06:20:20.926Z,60.89
2023-05-09T06:21:20.936Z,60.69
2023-05-09T06:22:20.923Z,59.46
2023-05-09T06:23:20.901Z,59.36
2023-05-09T06:24:34.470Z,58.54
2023-05-09T06:25:21.885Z,58.95
2023-05-09T06:26:20.840Z,59.05
2023-05-09T06:27:20.847Z,57.73
2023-05-09T06:28:20.834Z,59.26
2023-05-09T06:29:20.825Z,57.62
2023-05-09T06:31:21.139Z,57.70
2023-05-09T06:32:20.786Z,57.80
2023-05-09T06:33:20.764Z,58.31
2023-05-09T06:34:20.780Z,58.11
2023-05-09T06:35:20.747Z,58.51
2023-05-09T06:36:20.755Z,57.50
2023-05-09T06:37:20.726Z,56.76
2023-05-09T06:38:20.714Z,57.78
2023-05-09T06:39:20.703Z,57.26
2023-05-09T06:40:20.688Z,56.55
2023-05-09T06:41:20.678Z,56.55
2023-05-09T06:42:20.643Z,57.06
2023-05-09T06:43:20.644Z,56.65
2023-05-09T06:44:20.629Z,56.55
2023-05-09T06:45:20.812Z,57.17
2023-05-09T06:46:20.656Z,57.34
2023-05-09T06:47:20.592Z,56.32
2023-05-09T06:48:20.575Z,56.93
2023-05-09T06:49:20.548Z,56.32
2023-05-09T06:50:20.540Z,56.93
2023-05-09T06:51:20.573Z,56.93
2023-05-09T06:52:20.516Z,57.11
2023-05-09T06:53:20.514Z,55.81
2023-05-09T06:54:20.486Z,55.41
2023-05-09T06:55:20.481Z,56.60
2023-05-09T06:56:20.484Z,55.79
2023-05-09T06:57:20.465Z,55.38
2023-05-09T06:58:20.452Z,55.48
2023-05-09T06:59:20.444Z,54.46
2023-05-09T07:00:20.407Z,54.77
2023-05-09T07:01:20.454Z,55.07
2023-05-09T07:02:20.409Z,55.58
2023-05-09T07:03:20.437Z,54.77
2023-05-09T07:04:20.383Z,54.87
2023-05-09T07:05:20.395Z,54.66
2023-05-09T07:06:20.341Z,53.96
2023-05-09T07:07:20.342Z,53.83
2023-05-09T07:08:20.319Z,53.83
2023-05-09T07:09:20.341Z,53.72
2023-05-09T07:10:20.279Z,53.93
2023-05-09T07:11:20.293Z,53.63
2023-05-09T07:12:20.256Z,52.91
2023-05-09T07:13:20.370Z,53.39
2023-05-09T07:14:20.270Z,52.78
2023-05-09T07:15:29.019Z,53.09
2023-05-09T07:16:21.230Z,52.78
2023-05-09T07:17:23.704Z,53.09
2023-05-09T07:18:20.206Z,52.15
2023-05-09T07:19:20.161Z,52.66
2023-05-09T07:20:20.171Z,52.96
2023-05-09T07:21:20.154Z,52.66
2023-05-09T07:22:20.147Z,53.45
2023-05-09T07:23:20.132Z,53.14
2023-05-09T07:24:20.114Z,51.51
2023-05-09T07:25:20.090Z,52.23
2023-05-09T07:26:20.122Z,53.34
2023-05-09T07:27:20.080Z,51.39
2023-05-09T07:28:20.070Z,52.30
2023-05-09T07:29:20.048Z,51.29
2023-05-09T07:30:20.048Z,50.58
2023-05-09T07:31:20.047Z,51.49
2023-05-09T07:32:20.015Z,51.49
2023-05-09T07:33:20.002Z,49.87
2023-05-09T07:34:19.980Z,50.17
2023-05-09T07:35:19.973Z,49.97
2023-05-09T07:36:19.984Z,50.48
2023-05-09T07:37:19.944Z,50.88
2023-05-09T07:38:19.926Z,50.35
2023-05-09T07:39:19.917Z,50.04
2023-05-09T07:40:19.917Z,49.13
2023-05-09T07:41:19.894Z,48.34
2023-05-09T07:42:19.885Z,49.54
2023-05-09T07:43:19.879Z,49.23
2023-05-09T07:44:19.870Z,49.33
2023-05-09T07:45:21.999Z,49.74
2023-05-09T07:46:19.920Z,49.23
2023-05-09T07:47:19.820Z,50.04
2023-05-09T07:48:19.810Z,49.54
2023-05-09T07:49:19.764Z,49.21
2023-05-09T07:50:19.770Z,48.50
2023-05-09T07:51:19.772Z,49.21
2023-05-09T07:52:19.745Z,48.40
2023-05-09T07:53:19.744Z,49.21
2023-05-09T07:54:19.769Z,49.82
2023-05-09T07:55:19.707Z,48.91
2023-05-09T07:56:19.698Z,49.31
2023-05-09T07:57:19.692Z,48.30
2023-05-09T07:58:19.676Z,47.38
2023-05-09T07:59:19.646Z,48.60
2023-05-09T08:00:19.659Z,48.10
2023-05-09T08:01:19.628Z,48.30
2023-05-09T08:02:19.625Z,47.89
2023-05-09T08:03:19.680Z,47.87
2023-05-09T08:04:19.651Z,48.07
2023-05-09T08:05:19.583Z,47.26
2023-05-09T08:06:19.547Z,48.18
2023-05-09T08:07:19.527Z,48.07
2023-05-09T08:08:19.550Z,48.27
2023-05-09T08:09:19.529Z,46.75
2023-05-09T08:10:19.513Z,46.75
2023-05-09T08:11:19.508Z,46.04
2023-05-09T08:12:19.496Z,46.35
2023-05-09T08:13:19.516Z,46.04
2023-05-09T08:14:19.473Z,46.95
2023-05-09T08:15:19.439Z,46.75
2023-05-09T08:16:19.466Z,46.45
2023-05-09T08:17:19.431Z,46.53
2023-05-09T08:18:19.413Z,46.94
2023-05-09T08:19:19.395Z,48.15
2023-05-09T08:20:19.406Z,47.82
2023-05-09T08:21:22.083Z,46.61
2023-05-09T08:22:19.354Z,47.02
2023-05-09T08:23:19.346Z,47.11
2023-05-09T08:24:19.330Z,48.82
2023-05-09T08:25:19.337Z,45.78
2023-05-09T08:26:19.303Z,46.10
2023-05-09T08:27:19.314Z,45.70
2023-05-09T08:28:19.301Z,45.59
2023-05-09T08:29:19.268Z,46.71
2023-05-09T08:30:19.252Z,46.71
2023-05-09T08:31:19.277Z,47.22
2023-05-09T08:32:19.229Z,46.89
2023-05-09T08:33:19.231Z,46.99
2023-05-09T08:34:19.218Z,46.89
2023-05-09T08:35:19.192Z,46.89
2023-05-09T08:36:19.167Z,46.89
2023-05-09T08:37:19.171Z,47.50
2023-05-09T08:38:19.149Z,47.90
2023-05-09T08:39:19.145Z,47.38
2023-05-09T08:40:19.204Z,48.18
2023-05-09T08:41:19.156Z,46.87
2023-05-09T08:42:19.137Z,46.36
2023-05-09T08:43:19.097Z,46.16
2023-05-09T08:44:19.071Z,46.84
2023-05-09T08:45:19.107Z,44.82
2023-05-09T08:46:19.088Z,45.73
2023-05-09T08:47:19.073Z,46.54
2023-05-09T08:48:19.052Z,45.73
2023-05-09T08:49:19.042Z,45.23
2023-05-09T08:50:19.133Z,44.52
2023-05-09T08:51:19.019Z,46.14
2023-05-09T08:52:18.971Z,46.14
2023-05-09T08:53:18.973Z,46.84
2023-05-09T08:54:20.660Z,46.44
2023-05-09T08:55:18.939Z,45.71
2023-05-09T08:56:18.934Z,45.41
2023-05-09T08:57:18.910Z,45.61
2023-05-09T08:58:18.891Z,44.52
2023-05-09T08:59:18.924Z,44.92
2023-05-09T09:00:20.642Z,45.41
2023-05-09T09:01:18.936Z,45.61
2023-05-09T09:02:18.833Z,45.91
2023-05-09T09:03:18.807Z,46.01
2023-05-09T09:04:18.905Z,46.32
2023-05-09T09:05:39.284Z,45.41
2023-05-09T09:06:19.810Z,45.51
2023-05-09T09:07:18.787Z,45.61
2023-05-09T09:08:18.797Z,45.61
2023-05-09T09:09:18.737Z,45.69
2023-05-09T09:10:18.759Z,47.11
2023-05-09T09:11:18.887Z,46.30
2023-05-09T09:12:18.742Z,45.97
2023-05-09T09:13:18.795Z,44.17
2023-05-09T09:14:18.700Z,43.26
2023-05-09T09:15:18.660Z,44.37
2023-05-09T09:16:18.718Z,44.48
2023-05-09T09:17:25.636Z,43.97
2023-05-09T09:18:18.629Z,44.48
2023-05-09T09:19:18.612Z,43.57
2023-05-09T09:20:18.591Z,43.85
2023-05-09T09:21:18.559Z,43.75
2023-05-09T09:22:26.669Z,44.76
2023-05-09T09:23:18.550Z,45.57
2023-05-09T09:24:18.562Z,43.55
2023-05-09T09:25:18.533Z,43.93
2023-05-09T09:26:18.528Z,43.04
2023-05-09T09:27:18.508Z,43.43
2023-05-09T09:28:18.503Z,42.92
2023-05-09T09:29:18.507Z,42.52
2023-05-09T09:30:18.484Z,41.81
2023-05-09T09:31:18.499Z,41.61
2023-05-09T09:32:18.573Z,41.50
2023-05-09T09:33:18.478Z,42.21
2023-05-09T09:34:18.429Z,40.90
2023-05-09T09:35:18.412Z,40.39
2023-05-09T09:36:18.398Z,41.81
2023-05-09T09:37:18.396Z,40.19
2023-05-09T09:38:18.375Z,39.79
2023-05-09T09:39:18.387Z,40.70
2023-05-09T09:40:18.404Z,40.59
2023-05-09T09:41:18.316Z,40.09
2023-05-09T09:42:18.350Z,40.50
2023-05-09T09:43:18.381Z,40.59
2023-05-09T09:44:18.305Z,41.20
2023-05-09T09:45:18.275Z,41.39
2023-05-09T09:46:18.374Z,40.78
2023-05-09T09:47:18.250Z,41.49
2023-05-09T09:48:18.253Z,40.68
2023-05-09T09:49:18.237Z,40.56
2023-05-09T09:50:18.372Z,40.16
2023-05-09T09:51:18.208Z,40.05
2023-05-09T09:52:18.214Z,39.95
2023-05-09T09:53:18.163Z,40.16
2023-05-09T09:54:18.150Z,39.85
2023-05-09T09:55:18.143Z,39.55
2023-05-09T09:56:18.201Z,40.16
2023-05-09T09:57:18.120Z,40.56
2023-05-09T09:58:18.140Z,40.56
2023-05-09T09:59:18.101Z,39.15
2023-05-09T10:00:18.132Z,40.05
2023-05-09T10:01:18.126Z,40.54
2023-05-09T10:02:18.096Z,40.94
2023-05-09T10:03:18.172Z,40.54
2023-05-09T10:04:18.086Z,41.63
2023-05-09T10:05:18.024Z,40.82
2023-05-09T10:06:18.039Z,41.73
2023-05-09T10:07:18.022Z,40.01
2023-05-09T10:08:18.136Z,41.81
2023-05-09T10:09:17.975Z,41.51
2023-05-09T10:10:18.035Z,40.50
2023-05-09T10:11:17.931Z,40.80
2023-05-09T10:12:17.939Z,42.41
2023-05-09T10:13:17.968Z,41.51
2023-05-09T10:14:17.930Z,43.40
2023-05-09T10:15:17.879Z,39.98
2023-05-09T10:17:18.043Z,40.08
2023-05-09T10:18:17.960Z,39.28
2023-05-09T10:19:17.829Z,39.19
2023-05-09T10:20:17.827Z,39.78
2023-05-09T10:21:17.847Z,39.98
2023-05-09T10:22:17.847Z,39.28
2023-05-09T10:23:17.797Z,39.29
2023-05-09T10:24:17.801Z,39.29
2023-05-09T10:25:17.839Z,39.79
2023-05-09T10:26:17.741Z,41.00
2023-05-09T10:27:17.749Z,40.08
2023-05-09T10:28:17.726Z,40.28
2023-05-09T10:29:17.725Z,39.17
2023-05-09T10:30:17.739Z,40.38
2023-05-09T10:31:17.702Z,39.17
2023-05-09T10:32:17.684Z,39.17
2023-05-09T10:33:17.683Z,40.08
2023-05-09T10:34:17.658Z,40.28
2023-05-09T10:35:17.809Z,39.07
2023-05-09T10:36:17.634Z,38.27
2023-05-09T10:37:17.622Z,39.68
2023-05-09T10:38:17.589Z,38.65
2023-05-09T10:39:17.599Z,39.45
2023-05-09T10:40:17.657Z,38.95
2023-05-09T10:41:17.576Z,37.95
2023-05-09T10:42:17.539Z,37.96
2023-05-09T10:43:17.527Z,38.77
2023-05-09T10:44:17.558Z,39.15
2023-05-09T10:45:17.769Z,38.65
2023-05-09T10:46:17.620Z,39.15
2023-05-09T10:47:17.489Z,39.86
2023-05-09T10:48:17.452Z,41.05
2023-05-09T10:49:17.446Z,38.93
2023-05-09T10:50:17.467Z,38.93
2023-05-09T10:51:17.414Z,39.62
2023-05-09T10:52:17.510Z,38.62
2023-05-09T10:53:17.396Z,39.72
2023-05-09T10:54:17.398Z,39.72
2023-05-09T10:55:17.376Z,39.62
2023-05-09T10:56:17.350Z,39.22
2023-05-09T10:57:17.353Z,38.21
2023-05-09T10:58:17.368Z,39.22
2023-05-09T10:59:17.333Z,39.22
2023-05-09T11:00:17.339Z,39.01
2023-05-09T11:01:17.309Z,39.12
2023-05-09T11:02:17.263Z,38.01
2023-05-09T11:03:17.330Z,39.72
2023-05-09T11:04:17.316Z,39.62
2023-05-09T11:05:17.437Z,40.12
2023-05-09T11:06:17.220Z,39.00
2023-05-09T11:07:17.223Z,39.10
2023-05-09T11:08:17.208Z,39.70
2023-05-09T11:09:17.176Z,37.89
2023-05-09T11:10:17.319Z,40.30
2023-05-09T11:11:17.156Z,39.00
2023-05-09T11:12:17.144Z,40.08
2023-05-09T11:13:17.154Z,38.48
2023-05-09T11:14:17.143Z,38.18
2023-05-09T11:15:17.168Z,38.88
2023-05-09T11:16:17.159Z,39.48
2023-05-09T11:17:17.091Z,39.48
2023-05-09T11:18:17.719Z,39.78
2023-05-09T11:19:17.069Z,40.06
2023-05-09T11:20:17.108Z,40.37
2023-05-09T11:21:17.017Z,39.66
2023-05-09T11:22:17.035Z,38.36
2023-05-09T11:23:17.032Z,38.06
2023-05-09T11:24:17.028Z,38.86
2023-05-09T11:25:17.316Z,39.06
2023-05-09T11:26:16.991Z,39.14
2023-05-09T11:27:16.952Z,38.94
2023-05-09T11:28:16.939Z,39.14
2023-05-09T11:29:16.931Z,37.84
2023-05-09T11:30:17.004Z,38.54
2023-05-09T11:31:16.931Z,39.04
2023-05-09T11:32:16.936Z,38.16
2023-05-09T11:33:16.902Z,39.04
2023-05-09T11:34:16.871Z,38.04
2023-05-09T11:35:17.092Z,37.74
2023-05-09T11:36:16.846Z,39.84
2023-05-09T11:37:16.837Z,37.63
2023-05-09T11:38:16.821Z,39.45
2023-05-09T11:39:16.815Z,39.25
2023-05-09T11:40:16.803Z,38.14
2023-05-09T11:41:16.798Z,38.64
2023-05-09T11:42:16.784Z,37.02
2023-05-09T11:43:16.770Z,36.82
2023-05-09T11:44:16.759Z,36.52
2023-05-09T11:45:16.961Z,37.82
2023-05-09T11:46:16.750Z,38.22
2023-05-09T11:47:16.706Z,39.03
2023-05-09T11:48:16.735Z,37.82
2023-05-09T11:49:16.681Z,38.72
2023-05-09T11:50:16.671Z,38.32
2023-05-09T11:51:16.651Z,38.22
2023-05-09T11:52:16.651Z,37.42
2023-05-09T11:53:16.658Z,38.20
2023-05-09T11:54:16.627Z,38.60
2023-05-09T11:55:16.929Z,37.22
2023-05-09T11:56:16.591Z,38.22
2023-05-09T11:57:16.572Z,38.90
2023-05-09T11:58:16.569Z,38.00
2023-05-09T11:59:16.573Z,39.40
2023-05-09T12:00:16.569Z,36.70
2023-05-09T12:01:16.541Z,37.60
2023-05-09T12:02:16.612Z,37.80
2023-05-09T12:03:16.783Z,38.00
2023-05-09T12:04:16.539Z,36.80
2023-05-09T12:05:16.744Z,37.60
2023-05-09T12:06:16.451Z,37.20
2023-05-09T12:07:16.488Z,37.20
2023-05-09T12:08:16.438Z,36.60
2023-05-09T12:09:16.439Z,37.79
2023-05-09T12:10:16.541Z,37.68
2023-05-09T12:11:16.405Z,35.78
2023-05-09T12:12:16.429Z,36.88
2023-05-09T12:13:16.453Z,37.37
2023-05-09T12:14:16.365Z,38.37
2023-05-09T12:15:16.790Z,35.66
2023-05-09T12:16:16.414Z,35.56
2023-05-09T12:17:16.335Z,35.66
2023-05-09T12:18:16.316Z,35.08
2023-05-09T12:19:16.301Z,35.88
2023-05-09T12:20:16.397Z,34.98
2023-05-09T12:21:16.289Z,34.88
2023-05-09T12:22:16.267Z,36.28
2023-05-09T12:23:16.256Z,36.18
2023-05-09T12:24:16.237Z,36.08
2023-05-09T12:25:16.427Z,36.58
2023-05-09T12:26:16.212Z,36.38
2023-05-09T12:27:16.188Z,35.26
2023-05-09T12:28:16.179Z,35.56
2023-05-09T12:29:16.204Z,37.07
2023-05-09T12:30:16.295Z,35.35
2023-05-09T12:31:16.172Z,35.55
2023-05-09T12:32:16.154Z,34.94
2023-05-09T12:33:16.105Z,35.05
2023-05-09T12:34:16.104Z,35.16
2023-05-09T12:35:16.334Z,36.07
2023-05-09T12:36:16.095Z,36.05
2023-05-09T12:37:16.065Z,35.55
2023-05-09T12:38:16.044Z,35.55
2023-05-09T12:39:16.046Z,35.05
2023-05-09T12:40:16.032Z,35.14
2023-05-09T12:41:31.040Z,37.13
2023-05-09T12:42:16.989Z,36.93
2023-05-09T12:43:15.969Z,36.33
2023-05-09T12:44:15.988Z,36.13
2023-05-09T12:45:16.175Z,36.53
2023-05-09T12:46:15.981Z,36.53
2023-05-09T12:47:16.026Z,37.33
2023-05-09T12:48:15.924Z,35.73
2023-05-09T12:49:15.900Z,35.53
2023-05-09T12:50:15.872Z,36.63
2023-05-09T12:51:15.893Z,36.41
2023-05-09T12:52:15.884Z,35.43
2023-05-09T12:53:15.858Z,34.73
2023-05-09T12:54:15.851Z,35.23